sensor_id;sensor_type;location;lat;lon;timestamp;P1;durP1;ratioP1;P2;durP2;ratioP2
34643;SDS011;26931;43.498;-1.506;2023-06-05T00:01:48;21.35;;;12.45;;
34643;SDS011;26931;43.498;-1.506;2023-06-05T00:04:19;16.50;;;12.32;;
34643;SDS011;26931;43.498;-1.506;2023-06-05T00:06:46;17.65;;;11.98;;
34643;SDS011;26931;43.498;-1.506;2023-06-05T00:09:12;14.30;;;10.85;;
34643;SDS011;26931;43.498;-1.506;2023-06-05T00:11:38;15.60;;;11.43;;
34643;SDS011;26931;43.498;-1.506;2023-06-05T00:14:05;19.58;;;13.02;;
34643;SDS011;26931;43.498;-1.506;2023-06-05T00:16:33;16.42;;;12.60;;
34643;SDS011;26931;43.498;-1.506;2023-06-05T00:18:59;18.00;;;13.35;;
34643;SDS011;26931;43.498;-1.506;2023-06-05T00:21:26;20.42;;;13.43;;
34643;SDS011;26931;43.498;-1.506;2023-06-05T00:23:52;18.38;;;13.57;;
34643;SDS011;26931;43.498;-1.506;2023-06-05T00:26:18;19.58;;;14.15;;
34643;SDS011;26931;43.498;-1.506;2023-06-05T00:28:44;18.52;;;13.60;;
34643;SDS011;26931;43.498;-1.506;2023-06-05T00:31:13;21.25;;;14.98;;
34643;SDS011;26931;43.498;-1.506;2023-06-05T00:33:39;20.92;;;14.43;;
34643;SDS011;26931;43.498;-1.506;2023-06-05T00:36:05;21.92;;;14.82;;
34643;SDS011;26931;43.498;-1.506;2023-06-05T00:38:32;17.80;;;14.90;;
34643;SDS011;26931;43.498;-1.506;2023-06-05T00:40:58;21.60;;;15.63;;
34643;SDS011;26931;43.498;-1.506;2023-06-05T00:43:24;21.35;;;15.48;;
34643;SDS011;26931;43.498;-1.506;2023-06-05T00:46:01;22.73;;;16.50;;
34643;SDS011;26931;43.498;-1.506;2023-06-05T00:48:28;23.85;;;17.05;;
34643;SDS011;26931;43.498;-1.506;2023-06-05T00:50:57;24.30;;;16.40;;
34643;SDS011;26931;43.498;-1.506;2023-06-05T00:53:23;20.00;;;16.30;;
34643;SDS011;26931;43.498;-1.506;2023-06-05T00:55:50;18.83;;;15.18;;
34643;SDS011;26931;43.498;-1.506;2023-06-05T00:58:17;20.55;;;15.55;;
34643;SDS011;26931;43.498;-1.506;2023-06-05T01:00:43;18.92;;;13.85;;
34643;SDS011;26931;43.498;-1.506;2023-06-05T01:03:11;19.70;;;14.35;;
34643;SDS011;26931;43.498;-1.506;2023-06-05T01:05:38;18.42;;;14.68;;
34643;SDS011;26931;43.498;-1.506;2023-06-05T01:08:05;17.38;;;14.20;;
34643;SDS011;26931;43.498;-1.506;2023-06-05T01:10:34;22.23;;;14.48;;
34643;SDS011;26931;43.498;-1.506;2023-06-05T01:15:28;18.45;;;13.88;;
34643;SDS011;26931;43.498;-1.506;2023-06-05T01:17:58;23.13;;;13.93;;
34643;SDS011;26931;43.498;-1.506;2023-06-05T01:20:37;20.15;;;14.00;;
34643;SDS011;26931;43.498;-1.506;2023-06-05T01:23:04;23.20;;;14.30;;
34643;SDS011;26931;43.498;-1.506;2023-06-05T01:25:32;20.80;;;13.90;;
34643;SDS011;26931;43.498;-1.506;2023-06-05T01:28:00;18.58;;;13.77;;
34643;SDS011;26931;43.498;-1.506;2023-06-05T01:30:45;20.02;;;13.15;;
34643;SDS011;26931;43.498;-1.506;2023-06-05T01:33:32;18.70;;;13.27;;
34643;SDS011;26931;43.498;-1.506;2023-06-05T01:36:11;22.38;;;13.75;;
34643;SDS011;26931;43.498;-1.506;2023-06-05T01:38:39;18.15;;;12.98;;
34643;SDS011;26931;43.498;-1.506;2023-06-05T01:41:07;23.05;;;13.82;;
34643;SDS011;26931;43.498;-1.506;2023-06-05T01:43:38;21.80;;;14.18;;
34643;SDS011;26931;43.498;-1.506;2023-06-05T01:46:05;22.70;;;13.38;;
34643;SDS011;26931;43.498;-1.506;2023-06-05T01:48:33;17.90;;;13.65;;
34643;SDS011;26931;43.498;-1.506;2023-06-05T01:51:00;20.63;;;13.02;;
34643;SDS011;26931;43.498;-1.506;2023-06-05T01:53:27;21.52;;;14.00;;
34643;SDS011;26931;43.498;-1.506;2023-06-05T01:55:54;17.33;;;13.45;;
34643;SDS011;26931;43.498;-1.506;2023-06-05T01:58:24;18.67;;;12.45;;
34643;SDS011;26931;43.498;-1.506;2023-06-05T02:00:50;18.10;;;12.88;;
34643;SDS011;26931;43.498;-1.506;2023-06-05T02:03:22;18.20;;;12.93;;
34643;SDS011;26931;43.498;-1.506;2023-06-05T02:05:48;19.45;;;13.50;;
34643;SDS011;26931;43.498;-1.506;2023-06-05T02:08:16;18.25;;;12.75;;
34643;SDS011;26931;43.498;-1.506;2023-06-05T02:10:50;18.77;;;13.23;;
34643;SDS011;26931;43.498;-1.506;2023-06-05T02:13:18;15.45;;;12.50;;
34643;SDS011;26931;43.498;-1.506;2023-06-05T02:15:45;20.45;;;12.40;;
34643;SDS011;26931;43.498;-1.506;2023-06-05T02:18:20;15.15;;;12.43;;
34643;SDS011;26931;43.498;-1.506;2023-06-05T02:20:52;14.88;;;12.45;;
34643;SDS011;26931;43.498;-1.506;2023-06-05T02:23:20;17.10;;;12.43;;
34643;SDS011;26931;43.498;-1.506;2023-06-05T02:25:46;16.52;;;12.35;;
34643;SDS011;26931;43.498;-1.506;2023-06-05T02:28:12;18.63;;;12.10;;
34643;SDS011;26931;43.498;-1.506;2023-06-05T02:30:39;18.08;;;12.32;;
34643;SDS011;26931;43.498;-1.506;2023-06-05T02:33:10;21.48;;;12.05;;
34643;SDS011;26931;43.498;-1.506;2023-06-05T02:35:37;20.20;;;13.30;;
34643;SDS011;26931;43.498;-1.506;2023-06-05T02:38:04;16.73;;;12.18;;
34643;SDS011;26931;43.498;-1.506;2023-06-05T02:40:31;21.10;;;13.35;;
34643;SDS011;26931;43.498;-1.506;2023-06-05T02:42:57;20.23;;;13.40;;
34643;SDS011;26931;43.498;-1.506;2023-06-05T02:45:23;17.58;;;12.75;;
34643;SDS011;26931;43.498;-1.506;2023-06-05T02:47:49;18.77;;;12.32;;
34643;SDS011;26931;43.498;-1.506;2023-06-05T02:50:19;19.27;;;13.45;;
34643;SDS011;26931;43.498;-1.506;2023-06-05T02:52:45;16.33;;;12.35;;
34643;SDS011;26931;43.498;-1.506;2023-06-05T02:55:11;17.95;;;12.48;;
34643;SDS011;26931;43.498;-1.506;2023-06-05T02:57:37;21.65;;;13.05;;
34643;SDS011;26931;43.498;-1.506;2023-06-05T03:00:10;23.02;;;14.23;;
34643;SDS011;26931;43.498;-1.506;2023-06-05T03:02:47;22.23;;;14.40;;
34643;SDS011;26931;43.498;-1.506;2023-06-05T03:05:17;16.50;;;14.45;;
34643;SDS011;26931;43.498;-1.506;2023-06-05T03:07:43;19.10;;;14.95;;
34643;SDS011;26931;43.498;-1.506;2023-06-05T03:10:10;18.83;;;14.88;;
34643;SDS011;26931;43.498;-1.506;2023-06-05T03:12:36;19.05;;;14.32;;
34643;SDS011;26931;43.498;-1.506;2023-06-05T03:15:02;21.00;;;15.98;;
34643;SDS011;26931;43.498;-1.506;2023-06-05T03:17:28;17.33;;;14.48;;
34643;SDS011;26931;43.498;-1.506;2023-06-05T03:19:55;21.10;;;15.63;;
34643;SDS011;26931;43.498;-1.506;2023-06-05T03:22:21;18.60;;;14.52;;
34643;SDS011;26931;43.498;-1.506;2023-06-05T03:24:49;21.20;;;16.20;;
34643;SDS011;26931;43.498;-1.506;2023-06-05T03:27:20;20.70;;;16.20;;
34643;SDS011;26931;43.498;-1.506;2023-06-05T03:29:49;22.42;;;15.63;;
34643;SDS011;26931;43.498;-1.506;2023-06-05T03:32:15;24.05;;;17.27;;
34643;SDS011;26931;43.498;-1.506;2023-06-05T03:34:41;22.50;;;15.90;;
34643;SDS011;26931;43.498;-1.506;2023-06-05T03:37:08;23.25;;;17.05;;
34643;SDS011;26931;43.498;-1.506;2023-06-05T03:39:34;23.73;;;17.08;;
34643;SDS011;26931;43.498;-1.506;2023-06-05T03:42:00;19.30;;;16.50;;
34643;SDS011;26931;43.498;-1.506;2023-06-05T03:44:27;19.50;;;16.60;;
34643;SDS011;26931;43.498;-1.506;2023-06-05T03:46:53;20.10;;;17.17;;
34643;SDS011;26931;43.498;-1.506;2023-06-05T03:49:19;21.05;;;17.38;;
34643;SDS011;26931;43.498;-1.506;2023-06-05T03:51:45;22.85;;;18.20;;
34643;SDS011;26931;43.498;-1.506;2023-06-05T03:54:14;21.88;;;18.30;;
34643;SDS011;26931;43.498;-1.506;2023-06-05T03:56:41;25.38;;;18.92;;
34643;SDS011;26931;43.498;-1.506;2023-06-05T03:59:14;24.90;;;18.77;;
34643;SDS011;26931;43.498;-1.506;2023-06-05T04:01:44;24.40;;;19.65;;
34643;SDS011;26931;43.498;-1.506;2023-06-05T04:04:11;26.05;;;19.95;;
34643;SDS011;26931;43.498;-1.506;2023-06-05T04:06:37;24.90;;;20.05;;
34643;SDS011;26931;43.498;-1.506;2023-06-05T04:09:05;23.42;;;19.10;;
34643;SDS011;26931;43.498;-1.506;2023-06-05T04:11:40;27.48;;;20.23;;
34643;SDS011;26931;43.498;-1.506;2023-06-05T04:14:08;25.48;;;20.60;;
34643;SDS011;26931;43.498;-1.506;2023-06-05T04:16:35;27.13;;;20.45;;
34643;SDS011;26931;43.498;-1.506;2023-06-05T04:19:08;26.65;;;20.88;;
34643;SDS011;26931;43.498;-1.506;2023-06-05T04:21:35;25.73;;;18.50;;
34643;SDS011;26931;43.498;-1.506;2023-06-05T04:24:06;25.45;;;19.48;;
34643;SDS011;26931;43.498;-1.506;2023-06-05T04:26:36;22.90;;;19.13;;
34643;SDS011;26931;43.498;-1.506;2023-06-05T04:29:03;26.33;;;19.80;;
34643;SDS011;26931;43.498;-1.506;2023-06-05T04:31:45;22.80;;;18.70;;
34643;SDS011;26931;43.498;-1.506;2023-06-05T04:34:12;24.60;;;18.02;;
34643;SDS011;26931;43.498;-1.506;2023-06-05T04:36:40;25.92;;;19.88;;
34643;SDS011;26931;43.498;-1.506;2023-06-05T04:39:06;23.60;;;18.40;;
34643;SDS011;26931;43.498;-1.506;2023-06-05T04:41:39;22.58;;;17.73;;
34643;SDS011;26931;43.498;-1.506;2023-06-05T04:44:11;20.30;;;17.48;;
34643;SDS011;26931;43.498;-1.506;2023-06-05T04:46:38;27.17;;;18.02;;
34643;SDS011;26931;43.498;-1.506;2023-06-05T04:49:09;25.20;;;18.02;;
34643;SDS011;26931;43.498;-1.506;2023-06-05T04:54:05;23.42;;;17.95;;
34643;SDS011;26931;43.498;-1.506;2023-06-05T04:56:33;23.20;;;17.60;;
34643;SDS011;26931;43.498;-1.506;2023-06-05T04:59:00;20.13;;;16.67;;
34643;SDS011;26931;43.498;-1.506;2023-06-05T05:01:27;23.33;;;17.58;;
34643;SDS011;26931;43.498;-1.506;2023-06-05T05:03:54;23.88;;;17.23;;
34643;SDS011;26931;43.498;-1.506;2023-06-05T05:06:20;20.40;;;17.80;;
34643;SDS011;26931;43.498;-1.506;2023-06-05T05:08:47;22.83;;;18.23;;
34643;SDS011;26931;43.498;-1.506;2023-06-05T05:11:13;20.35;;;15.98;;
34643;SDS011;26931;43.498;-1.506;2023-06-05T05:13:40;22.05;;;17.48;;
34643;SDS011;26931;43.498;-1.506;2023-06-05T05:16:07;20.60;;;17.08;;
34643;SDS011;26931;43.498;-1.506;2023-06-05T05:18:34;24.55;;;17.40;;
34643;SDS011;26931;43.498;-1.506;2023-06-05T05:21:02;20.05;;;16.67;;
34643;SDS011;26931;43.498;-1.506;2023-06-05T05:23:30;23.08;;;17.77;;
34643;SDS011;26931;43.498;-1.506;2023-06-05T05:25:56;22.77;;;17.95;;
34643;SDS011;26931;43.498;-1.506;2023-06-05T05:28:22;24.88;;;18.17;;
34643;SDS011;26931;43.498;-1.506;2023-06-05T05:30:49;23.63;;;17.88;;
34643;SDS011;26931;43.498;-1.506;2023-06-05T05:33:18;23.50;;;16.77;;
34643;SDS011;26931;43.498;-1.506;2023-06-05T05:35:44;23.83;;;18.45;;
34643;SDS011;26931;43.498;-1.506;2023-06-05T05:38:10;20.98;;;16.70;;
34643;SDS011;26931;43.498;-1.506;2023-06-05T05:40:36;23.40;;;19.10;;
34643;SDS011;26931;43.498;-1.506;2023-06-05T05:43:02;22.35;;;18.13;;
34643;SDS011;26931;43.498;-1.506;2023-06-05T05:45:28;26.55;;;18.88;;
34643;SDS011;26931;43.498;-1.506;2023-06-05T05:47:54;22.50;;;18.77;;
34643;SDS011;26931;43.498;-1.506;2023-06-05T05:50:20;24.10;;;18.40;;
34643;SDS011;26931;43.498;-1.506;2023-06-05T05:52:49;25.20;;;18.35;;
34643;SDS011;26931;43.498;-1.506;2023-06-05T05:55:18;23.27;;;18.33;;
34643;SDS011;26931;43.498;-1.506;2023-06-05T05:57:44;26.65;;;19.75;;
34643;SDS011;26931;43.498;-1.506;2023-06-05T06:00:10;22.15;;;17.38;;
34643;SDS011;26931;43.498;-1.506;2023-06-05T06:02:40;31.48;;;20.13;;
34643;SDS011;26931;43.498;-1.506;2023-06-05T06:05:07;25.33;;;18.15;;
34643;SDS011;26931;43.498;-1.506;2023-06-05T06:07:35;25.88;;;18.13;;
34643;SDS011;26931;43.498;-1.506;2023-06-05T06:10:01;19.63;;;17.48;;
34643;SDS011;26931;43.498;-1.506;2023-06-05T06:12:28;22.67;;;17.35;;
34643;SDS011;26931;43.498;-1.506;2023-06-05T06:14:54;22.50;;;17.88;;
34643;SDS011;26931;43.498;-1.506;2023-06-05T06:17:21;23.38;;;18.90;;
34643;SDS011;26931;43.498;-1.506;2023-06-05T06:19:47;20.77;;;17.65;;
34643;SDS011;26931;43.498;-1.506;2023-06-05T06:22:13;23.40;;;18.92;;
34643;SDS011;26931;43.498;-1.506;2023-06-05T06:24:43;28.65;;;21.38;;
34643;SDS011;26931;43.498;-1.506;2023-06-05T06:27:09;29.30;;;19.48;;
34643;SDS011;26931;43.498;-1.506;2023-06-05T06:29:48;25.60;;;19.05;;
34643;SDS011;26931;43.498;-1.506;2023-06-05T06:32:17;22.15;;;17.38;;
34643;SDS011;26931;43.498;-1.506;2023-06-05T06:34:43;24.80;;;17.55;;
34643;SDS011;26931;43.498;-1.506;2023-06-05T06:37:10;26.00;;;18.23;;
34643;SDS011;26931;43.498;-1.506;2023-06-05T06:39:42;20.75;;;18.08;;
34643;SDS011;26931;43.498;-1.506;2023-06-05T06:42:09;22.30;;;17.17;;
34643;SDS011;26931;43.498;-1.506;2023-06-05T06:44:36;26.48;;;17.70;;
34643;SDS011;26931;43.498;-1.506;2023-06-05T06:47:03;20.23;;;16.98;;
34643;SDS011;26931;43.498;-1.506;2023-06-05T06:49:29;19.90;;;16.15;;
34643;SDS011;26931;43.498;-1.506;2023-06-05T06:51:56;20.90;;;16.85;;
34643;SDS011;26931;43.498;-1.506;2023-06-05T06:54:22;23.90;;;16.02;;
34643;SDS011;26931;43.498;-1.506;2023-06-05T06:56:51;19.88;;;15.65;;
34643;SDS011;26931;43.498;-1.506;2023-06-05T06:59:17;21.63;;;15.93;;
34643;SDS011;26931;43.498;-1.506;2023-06-05T07:01:44;18.23;;;15.18;;
34643;SDS011;26931;43.498;-1.506;2023-06-05T07:04:15;23.42;;;16.08;;
34643;SDS011;26931;43.498;-1.506;2023-06-05T07:06:45;18.73;;;15.00;;
34643;SDS011;26931;43.498;-1.506;2023-06-05T07:09:13;28.00;;;16.73;;
34643;SDS011;26931;43.498;-1.506;2023-06-05T07:11:39;20.88;;;15.60;;
34643;SDS011;26931;43.498;-1.506;2023-06-05T07:14:05;20.58;;;14.00;;
34643;SDS011;26931;43.498;-1.506;2023-06-05T07:16:32;18.83;;;13.25;;
34643;SDS011;26931;43.498;-1.506;2023-06-05T07:18:59;19.73;;;13.32;;
34643;SDS011;26931;43.498;-1.506;2023-06-05T07:21:28;15.73;;;12.68;;
34643;SDS011;26931;43.498;-1.506;2023-06-05T07:23:54;16.13;;;13.15;;
34643;SDS011;26931;43.498;-1.506;2023-06-05T07:26:22;18.60;;;13.57;;
34643;SDS011;26931;43.498;-1.506;2023-06-05T07:28:49;14.43;;;11.98;;
34643;SDS011;26931;43.498;-1.506;2023-06-05T07:31:16;18.90;;;12.88;;
34643;SDS011;26931;43.498;-1.506;2023-06-05T07:33:43;14.38;;;12.27;;
34643;SDS011;26931;43.498;-1.506;2023-06-05T07:36:09;13.95;;;12.07;;
34643;SDS011;26931;43.498;-1.506;2023-06-05T07:38:35;14.07;;;12.60;;
34643;SDS011;26931;43.498;-1.506;2023-06-05T07:41:04;14.65;;;12.40;;
34643;SDS011;26931;43.498;-1.506;2023-06-05T07:43:31;13.93;;;12.30;;
34643;SDS011;26931;43.498;-1.506;2023-06-05T07:45:57;13.20;;;11.25;;
34643;SDS011;26931;43.498;-1.506;2023-06-05T07:48:23;12.35;;;11.05;;
34643;SDS011;26931;43.498;-1.506;2023-06-05T07:50:49;16.25;;;11.60;;
34643;SDS011;26931;43.498;-1.506;2023-06-05T07:53:15;13.15;;;11.23;;
34643;SDS011;26931;43.498;-1.506;2023-06-05T07:55:41;11.82;;;10.32;;
34643;SDS011;26931;43.498;-1.506;2023-06-05T07:58:08;17.15;;;11.00;;
34643;SDS011;26931;43.498;-1.506;2023-06-05T08:00:34;12.57;;;10.25;;
34643;SDS011;26931;43.498;-1.506;2023-06-05T08:03:00;13.65;;;10.38;;
34643;SDS011;26931;43.498;-1.506;2023-06-05T08:05:27;15.95;;;11.45;;
34643;SDS011;26931;43.498;-1.506;2023-06-05T08:07:53;13.38;;;10.63;;
34643;SDS011;26931;43.498;-1.506;2023-06-05T08:10:19;11.77;;;10.00;;
34643;SDS011;26931;43.498;-1.506;2023-06-05T08:12:46;14.77;;;10.77;;
34643;SDS011;26931;43.498;-1.506;2023-06-05T08:15:12;13.18;;;10.15;;
34643;SDS011;26931;43.498;-1.506;2023-06-05T08:17:38;11.48;;;10.27;;
34643;SDS011;26931;43.498;-1.506;2023-06-05T08:20:04;11.88;;;10.60;;
34643;SDS011;26931;43.498;-1.506;2023-06-05T08:22:32;15.95;;;10.27;;
34643;SDS011;26931;43.498;-1.506;2023-06-05T08:24:58;16.33;;;11.30;;
34643;SDS011;26931;43.498;-1.506;2023-06-05T08:27:25;13.55;;;10.50;;
34643;SDS011;26931;43.498;-1.506;2023-06-05T08:29:51;15.70;;;10.23;;
34643;SDS011;26931;43.498;-1.506;2023-06-05T08:32:17;14.20;;;10.13;;
34643;SDS011;26931;43.498;-1.506;2023-06-05T08:34:45;14.65;;;11.25;;
34643;SDS011;26931;43.498;-1.506;2023-06-05T08:37:14;14.32;;;10.70;;
34643;SDS011;26931;43.498;-1.506;2023-06-05T08:39:41;13.88;;;10.23;;
34643;SDS011;26931;43.498;-1.506;2023-06-05T08:42:07;13.52;;;10.43;;
34643;SDS011;26931;43.498;-1.506;2023-06-05T08:44:36;16.08;;;11.18;;
34643;SDS011;26931;43.498;-1.506;2023-06-05T08:47:02;12.45;;;10.70;;
34643;SDS011;26931;43.498;-1.506;2023-06-05T08:49:29;12.35;;;10.23;;
34643;SDS011;26931;43.498;-1.506;2023-06-05T08:51:57;16.48;;;10.70;;
34643;SDS011;26931;43.498;-1.506;2023-06-05T08:57:03;12.57;;;11.02;;
34643;SDS011;26931;43.498;-1.506;2023-06-05T08:59:32;12.13;;;10.80;;
34643;SDS011;26931;43.498;-1.506;2023-06-05T09:02:00;16.50;;;12.20;;
34643;SDS011;26931;43.498;-1.506;2023-06-05T09:04:26;12.95;;;11.13;;
34643;SDS011;26931;43.498;-1.506;2023-06-05T09:06:58;15.52;;;11.07;;
34643;SDS011;26931;43.498;-1.506;2023-06-05T09:09:25;14.82;;;11.05;;
34643;SDS011;26931;43.498;-1.506;2023-06-05T09:12:04;12.82;;;10.63;;
34643;SDS011;26931;43.498;-1.506;2023-06-05T09:14:32;14.10;;;10.50;;
34643;SDS011;26931;43.498;-1.506;2023-06-05T09:16:59;16.42;;;11.95;;
34643;SDS011;26931;43.498;-1.506;2023-06-05T09:19:38;17.48;;;11.95;;
34643;SDS011;26931;43.498;-1.506;2023-06-05T09:22:06;16.20;;;11.02;;
34643;SDS011;26931;43.498;-1.506;2023-06-05T09:24:38;14.90;;;11.00;;
34643;SDS011;26931;43.498;-1.506;2023-06-05T09:27:12;13.77;;;10.63;;
34643;SDS011;26931;43.498;-1.506;2023-06-05T09:29:42;13.80;;;10.85;;
34643;SDS011;26931;43.498;-1.506;2023-06-05T09:34:39;13.70;;;11.10;;
34643;SDS011;26931;43.498;-1.506;2023-06-05T09:37:06;13.27;;;10.25;;
34643;SDS011;26931;43.498;-1.506;2023-06-05T09:39:34;10.75;;;9.65;;
34643;SDS011;26931;43.498;-1.506;2023-06-05T09:42:05;14.05;;;10.85;;
34643;SDS011;26931;43.498;-1.506;2023-06-05T09:44:35;15.05;;;10.60;;
34643;SDS011;26931;43.498;-1.506;2023-06-05T09:47:05;11.90;;;9.52;;
34643;SDS011;26931;43.498;-1.506;2023-06-05T09:52:06;10.15;;;9.15;;
34643;SDS011;26931;43.498;-1.506;2023-06-05T09:54:34;13.25;;;9.63;;
34643;SDS011;26931;43.498;-1.506;2023-06-05T09:57:05;12.88;;;8.75;;
34643;SDS011;26931;43.498;-1.506;2023-06-05T09:59:34;11.30;;;9.68;;
34643;SDS011;26931;43.498;-1.506;2023-06-05T10:02:08;11.13;;;9.48;;
34643;SDS011;26931;43.498;-1.506;2023-06-05T10:04:38;11.25;;;8.85;;
34643;SDS011;26931;43.498;-1.506;2023-06-05T10:07:14;11.45;;;8.82;;
34643;SDS011;26931;43.498;-1.506;2023-06-05T10:09:40;12.43;;;9.15;;
34643;SDS011;26931;43.498;-1.506;2023-06-05T10:12:07;11.63;;;9.55;;
34643;SDS011;26931;43.498;-1.506;2023-06-05T10:14:40;12.23;;;10.05;;
34643;SDS011;26931;43.498;-1.506;2023-06-05T10:17:07;14.32;;;9.95;;
34643;SDS011;26931;43.498;-1.506;2023-06-05T10:19:36;12.13;;;9.63;;
34643;SDS011;26931;43.498;-1.506;2023-06-05T10:22:06;12.10;;;10.25;;
34643;SDS011;26931;43.498;-1.506;2023-06-05T10:24:34;11.80;;;9.45;;
34643;SDS011;26931;43.498;-1.506;2023-06-05T10:38:28;12.15;;;9.30;;
34643;SDS011;26931;43.498;-1.506;2023-06-05T10:41:00;14.43;;;9.90;;
34643;SDS011;26931;43.498;-1.506;2023-06-05T10:43:31;11.73;;;9.93;;
34643;SDS011;26931;43.498;-1.506;2023-06-05T10:46:02;12.65;;;10.10;;
34643;SDS011;26931;43.498;-1.506;2023-06-05T10:54:06;11.38;;;10.20;;
34643;SDS011;26931;43.498;-1.506;2023-06-05T10:59:22;12.50;;;8.60;;
34643;SDS011;26931;43.498;-1.506;2023-06-05T11:07:15;12.20;;;9.63;;
34643;SDS011;26931;43.498;-1.506;2023-06-05T11:15:12;12.70;;;9.90;;
34643;SDS011;26931;43.498;-1.506;2023-06-05T11:17:42;11.23;;;9.60;;
34643;SDS011;26931;43.498;-1.506;2023-06-05T11:30:44;12.48;;;10.05;;
34643;SDS011;26931;43.498;-1.506;2023-06-05T11:35:46;12.43;;;10.07;;
34643;SDS011;26931;43.498;-1.506;2023-06-05T11:38:14;12.32;;;9.82;;
34643;SDS011;26931;43.498;-1.506;2023-06-05T11:40:43;13.45;;;9.23;;
34643;SDS011;26931;43.498;-1.506;2023-06-05T11:43:11;10.60;;;9.18;;
34643;SDS011;26931;43.498;-1.506;2023-06-05T11:45:39;12.57;;;9.80;;
34643;SDS011;26931;43.498;-1.506;2023-06-05T11:48:06;13.05;;;9.27;;
34643;SDS011;26931;43.498;-1.506;2023-06-05T11:50:37;13.57;;;9.73;;
34643;SDS011;26931;43.498;-1.506;2023-06-05T11:53:11;11.55;;;8.68;;
34643;SDS011;26931;43.498;-1.506;2023-06-05T11:55:37;12.15;;;9.77;;
34643;SDS011;26931;43.498;-1.506;2023-06-05T11:58:22;16.30;;;10.43;;
34643;SDS011;26931;43.498;-1.506;2023-06-05T12:01:03;16.10;;;10.05;;
34643;SDS011;26931;43.498;-1.506;2023-06-05T12:03:37;11.93;;;9.77;;
34643;SDS011;26931;43.498;-1.506;2023-06-05T12:06:07;9.88;;;8.80;;
34643;SDS011;26931;43.498;-1.506;2023-06-05T12:08:37;12.77;;;9.68;;
34643;SDS011;26931;43.498;-1.506;2023-06-05T12:11:03;11.63;;;9.88;;
34643;SDS011;26931;43.498;-1.506;2023-06-05T12:13:50;13.57;;;10.93;;
34643;SDS011;26931;43.498;-1.506;2023-06-05T12:16:17;12.32;;;9.73;;
34643;SDS011;26931;43.498;-1.506;2023-06-05T12:18:46;12.05;;;9.57;;
34643;SDS011;26931;43.498;-1.506;2023-06-05T12:21:23;11.40;;;9.43;;
34643;SDS011;26931;43.498;-1.506;2023-06-05T12:23:50;14.93;;;10.38;;
34643;SDS011;26931;43.498;-1.506;2023-06-05T12:26:17;12.88;;;9.75;;
34643;SDS011;26931;43.498;-1.506;2023-06-05T12:28:44;13.25;;;10.43;;
34643;SDS011;26931;43.498;-1.506;2023-06-05T12:31:31;13.02;;;10.60;;
34643;SDS011;26931;43.498;-1.506;2023-06-05T12:34:02;14.13;;;10.23;;
34643;SDS011;26931;43.498;-1.506;2023-06-05T12:36:40;11.80;;;9.65;;
34643;SDS011;26931;43.498;-1.506;2023-06-05T12:39:11;11.82;;;10.23;;
34643;SDS011;26931;43.498;-1.506;2023-06-05T12:41:39;12.98;;;10.48;;
34643;SDS011;26931;43.498;-1.506;2023-06-05T12:44:06;15.93;;;11.15;;
34643;SDS011;26931;43.498;-1.506;2023-06-05T12:46:33;16.70;;;10.93;;
34643;SDS011;26931;43.498;-1.506;2023-06-05T12:49:01;12.23;;;10.25;;
34643;SDS011;26931;43.498;-1.506;2023-06-05T12:51:28;14.52;;;10.43;;
34643;SDS011;26931;43.498;-1.506;2023-06-05T12:53:55;12.43;;;10.30;;
34643;SDS011;26931;43.498;-1.506;2023-06-05T12:56:22;13.10;;;10.93;;
34643;SDS011;26931;43.498;-1.506;2023-06-05T12:58:56;15.30;;;10.77;;
34643;SDS011;26931;43.498;-1.506;2023-06-05T13:01:23;12.48;;;10.40;;
34643;SDS011;26931;43.498;-1.506;2023-06-05T13:03:50;15.15;;;10.50;;
34643;SDS011;26931;43.498;-1.506;2023-06-05T13:06:18;17.55;;;11.07;;
34643;SDS011;26931;43.498;-1.506;2023-06-05T13:08:44;14.75;;;10.35;;
34643;SDS011;26931;43.498;-1.506;2023-06-05T13:11:11;13.52;;;10.30;;
34643;SDS011;26931;43.498;-1.506;2023-06-05T13:13:38;16.10;;;10.45;;
34643;SDS011;26931;43.498;-1.506;2023-06-05T13:16:07;17.25;;;11.25;;
34643;SDS011;26931;43.498;-1.506;2023-06-05T13:18:37;14.95;;;10.93;;
34643;SDS011;26931;43.498;-1.506;2023-06-05T13:21:04;16.80;;;11.10;;
34643;SDS011;26931;43.498;-1.506;2023-06-05T13:23:30;13.65;;;10.90;;
34643;SDS011;26931;43.498;-1.506;2023-06-05T13:25:57;10.32;;;9.30;;
34643;SDS011;26931;43.498;-1.506;2023-06-05T13:28:24;12.00;;;10.68;;
34643;SDS011;26931;43.498;-1.506;2023-06-05T13:30:50;15.25;;;10.73;;
34643;SDS011;26931;43.498;-1.506;2023-06-05T13:33:18;13.45;;;10.25;;
34643;SDS011;26931;43.498;-1.506;2023-06-05T13:35:45;17.50;;;10.70;;
34643;SDS011;26931;43.498;-1.506;2023-06-05T13:38:11;13.23;;;10.57;;
34643;SDS011;26931;43.498;-1.506;2023-06-05T13:40:37;16.27;;;11.40;;
34643;SDS011;26931;43.498;-1.506;2023-06-05T13:43:03;14.45;;;10.05;;
34643;SDS011;26931;43.498;-1.506;2023-06-05T13:45:29;12.10;;;9.68;;
34643;SDS011;26931;43.498;-1.506;2023-06-05T13:47:56;12.18;;;9.63;;
34643;SDS011;26931;43.498;-1.506;2023-06-05T13:50:23;13.68;;;10.45;;
34643;SDS011;26931;43.498;-1.506;2023-06-05T13:52:49;13.77;;;10.45;;
34643;SDS011;26931;43.498;-1.506;2023-06-05T13:55:16;16.67;;;10.52;;
34643;SDS011;26931;43.498;-1.506;2023-06-05T13:57:42;11.80;;;9.93;;
34643;SDS011;26931;43.498;-1.506;2023-06-05T14:00:08;13.45;;;9.43;;
34643;SDS011;26931;43.498;-1.506;2023-06-05T14:02:36;11.30;;;9.23;;
34643;SDS011;26931;43.498;-1.506;2023-06-05T14:05:03;13.80;;;10.93;;
34643;SDS011;26931;43.498;-1.506;2023-06-05T14:07:29;13.65;;;10.30;;
34643;SDS011;26931;43.498;-1.506;2023-06-05T14:09:55;12.25;;;9.40;;
34643;SDS011;26931;43.498;-1.506;2023-06-05T14:12:21;12.15;;;9.93;;
34643;SDS011;26931;43.498;-1.506;2023-06-05T14:14:47;12.55;;;10.00;;
34643;SDS011;26931;43.498;-1.506;2023-06-05T14:17:14;16.38;;;10.18;;
34643;SDS011;26931;43.498;-1.506;2023-06-05T14:19:43;12.32;;;10.30;;
34643;SDS011;26931;43.498;-1.506;2023-06-05T14:22:12;13.40;;;10.02;;
34643;SDS011;26931;43.498;-1.506;2023-06-05T14:24:39;10.32;;;9.23;;
34643;SDS011;26931;43.498;-1.506;2023-06-05T14:27:05;11.80;;;9.07;;
34643;SDS011;26931;43.498;-1.506;2023-06-05T14:29:32;12.70;;;9.70;;
34643;SDS011;26931;43.498;-1.506;2023-06-05T14:32:00;13.20;;;9.93;;
34643;SDS011;26931;43.498;-1.506;2023-06-05T14:34:26;10.55;;;9.05;;
34643;SDS011;26931;43.498;-1.506;2023-06-05T14:36:52;14.85;;;9.68;;
34643;SDS011;26931;43.498;-1.506;2023-06-05T14:39:19;10.80;;;9.70;;
34643;SDS011;26931;43.498;-1.506;2023-06-05T14:41:47;10.63;;;8.93;;
34643;SDS011;26931;43.498;-1.506;2023-06-05T14:44:13;13.95;;;10.52;;
34643;SDS011;26931;43.498;-1.506;2023-06-05T14:46:40;14.85;;;10.50;;
34643;SDS011;26931;43.498;-1.506;2023-06-05T14:49:07;12.27;;;9.60;;
34643;SDS011;26931;43.498;-1.506;2023-06-05T14:51:33;11.70;;;10.02;;
34643;SDS011;26931;43.498;-1.506;2023-06-05T14:53:59;10.60;;;9.60;;
34643;SDS011;26931;43.498;-1.506;2023-06-05T14:56:25;14.45;;;10.05;;
34643;SDS011;26931;43.498;-1.506;2023-06-05T14:58:51;14.25;;;10.52;;
34643;SDS011;26931;43.498;-1.506;2023-06-05T15:01:17;11.65;;;10.30;;
34643;SDS011;26931;43.498;-1.506;2023-06-05T15:03:44;14.23;;;10.93;;
34643;SDS011;26931;43.498;-1.506;2023-06-05T15:06:10;12.77;;;10.40;;
34643;SDS011;26931;43.498;-1.506;2023-06-05T15:08:37;16.63;;;10.77;;
34643;SDS011;26931;43.498;-1.506;2023-06-05T15:11:03;12.52;;;9.73;;
34643;SDS011;26931;43.498;-1.506;2023-06-05T15:13:29;14.75;;;10.48;;